• Join FlightAware (Why Join?)
  • Login
  • US Flag 
01:44PM EDT


 

Airport Tracker/Info


-or-


 

Live Flight TrackerFlight Track Log ✈ GGN7280 ✈ 08-May-2013 ✈ CYYZ - KALB

Flight Track Log - Related Links

Times and Time Zones

All times are in EDT time to prevent confusion due to time zone crossing. See the GGN7280 flight status page for this flight to view local times or setup timezone preferences in your user account.

Time Position Orientation Groundspeed Altitude Reporting Facility
EDT Latitude Longitude Course Direction KTS MPH feet Rate Location/Type
09:32AM 43.6667 -79.5833 90° East 90 104 700  Level Toronto Center
09:33AM 43.6667 -79.5333 90° East 180 207 2,300 1,620 Climbing Toronto Center
09:34AM 43.6667 -79.4667 90° East 190 219 4,000 1,500 Climbing Toronto Center
09:35AM 43.6167 -79.4333 154° Southeast 200 230 5,400 1,260 Climbing Toronto Center
09:36AM 43.5667 -79.3833 144° Southeast 200 230 6,600 780 Climbing Toronto Center
09:37AM 43.5333 -79.3167 125° Southeast 210 242 7,000 660 Climbing Toronto Center
09:38AM 43.5167 -79.2167 103° East 220 253 8,000 600 Climbing Toronto Center
09:39AM 43.5000 -79.1500 109° East 230 265 8,300 480 Climbing Toronto Center
09:40AM 43.4667 -79.0667 119° Southeast 230 265 9,000 900 Climbing Toronto Center
09:41AM 43.4500 -78.9833 105° East 220 253 10,100 1,200 Climbing Toronto Center
09:42AM 43.4167 -78.9167 125° Southeast 210 242 11,400 1,140 Climbing Toronto Center
09:43AM 43.4000 -78.8333 105° East 210 242 12,400 1,320 Climbing Toronto Center
09:44AM 43.3667 -78.7833 133° Southeast 200 230 14,100 1,440 Climbing Toronto Center
09:45AM 43.3400 -78.7622 150° Southeast 199 229 14,900 1,200 Climbing Cleveland Center
09:46AM 43.3036 -78.7119 135° Southeast 199 229 16,200 1,440 Climbing Cleveland Center
09:47AM 43.2672 -78.6444 126° Southeast 199 229 17,800 1,260 Climbing Cleveland Center
09:48AM 43.2308 -78.5858 130° Southeast 207 238 18,800 540 Climbing Cleveland Center
09:49AM 43.1986 -78.5269 127° Southeast 226 260 18,900  Climbing Cleveland Center
09:50AM 43.1467 -78.4319 127° Southeast 237 273 18,900  Level Cleveland Center
09:51AM 43.1078 -78.3536 124° Southeast 251 289 18,900  Level Cleveland Center
09:52AM 43.0728 -78.2725 121° Southeast 251 289 18,900  Level Cleveland Center
09:53AM 43.0397 -78.1858 118° Southeast 252 290 18,900  Level Cleveland Center
09:54AM 43.0069 -78.1131 122° Southeast 252 290 18,900  Level Cleveland Center
09:55AM 42.9761 -78.0322 118° Southeast 247 284 18,900  Level Cleveland Center
09:56AM 42.9347 -77.9517 125° Southeast 253 291 18,900  Level Cleveland Center
09:57AM 42.9053 -77.8564 113° Southeast 248 285 18,900  Level Cleveland Center
09:58AM 42.9117 -77.7711 84° East 248 285 18,900  Level Cleveland Center
09:59AM 42.9219 -77.6769 81° East 248 285 18,900  Level Cleveland Center
10:00AM 42.9150 -77.5781 95° East 253 291 18,900  Level Cleveland Center
10:01AM 42.9106 -77.4819 94° East 253 291 18,900  Level Cleveland Center
10:02AM 42.9100 -77.3856 90° East 253 291 18,900  Level Cleveland Center
10:03AM 42.9094 -77.2892 90° East 253 291 18,900  Level Cleveland Center
10:04AM 42.9067 -77.1931 92° East 253 291 18,900  Level Cleveland Center
10:05AM 42.9067 -77.0161 90° East 274 315 18,900  Level Boston Center
10:06AM 42.8833 -76.9333 111° Southeast 260 299 18,900  Level Toronto Center
10:07AM 42.8833 -76.8333 90° East 260 299 18,900  Level Toronto Center
10:07AM 42.8978 -76.8169 40° Northeast 263 303 18,900  Level Boston Center
10:08AM 42.8972 -76.7203 90° East 263 303 18,900  Level Boston Center
10:09AM 42.8947 -76.6181 92° East 263 303 18,900  Level Boston Center
10:10AM 42.8919 -76.5217 92° East 258 297 18,900  Level Boston Center
10:11AM 42.8894 -76.4222 92° East 258 297 18,900  Level Boston Center
10:12AM 42.8886 -76.3228 91° East 258 297 18,900  Level Boston Center
10:13AM 42.8836 -76.2261 94° East 258 297 18,900  Level Boston Center
10:14AM 42.8742 -76.1264 97° East 258 297 18,900  Level Boston Center
10:15AM 42.8586 -76.0292 102° East 258 297 18,900  Level Boston Center
10:16AM 42.8447 -75.9406 102° East 258 297 18,900  Level Boston Center
10:17AM 42.8289 -75.8433 102° East 258 297 18,900  Level Boston Center
10:18AM 42.8172 -75.7464 99° East 258 297 18,900  Level Boston Center
10:19AM 42.8117 -75.6497 94° East 258 297 18,900 -300 Level Boston Center
10:20AM 42.8061 -75.5506 94° East 258 297 18,400 -600 Descending Boston Center
10:21AM 42.8044 -75.4514 91° East 258 297 17,800 -660 Descending Boston Center
10:22AM 42.8050 -75.3494 90° East 258 297 17,100 -720 Descending Boston Center
10:23AM 42.8158 -75.2508 81° East 253 291 16,400 -840 Descending Boston Center
10:24AM 42.8308 -75.1553 78° East 253 291 15,500 -900 Descending Boston Center
10:25AM 42.8475 -75.0597 77° East 259 298 14,600 -960 Descending Boston Center
10:26AM 42.8664 -74.9614 75° East 259 298 13,600 -900 Descending Boston Center
10:27AM 42.8853 -74.8658 75° East 259 298 12,800 -1,080 Descending Boston Center
10:28AM 42.9014 -74.7842 75° East 268 308 11,800 -1,200 Descending Boston Center
10:29AM 42.9086 -74.7364 78° East 264 304 11,400 -840 Descending Boston Center
10:29AM 42.9222 -74.6858 70° East 271 312 11,000 -420 Descending Boston Center
10:30AM 42.9250 -74.6461 85° East 264 304 11,000  Level Boston Center
10:30AM 42.9367 -74.5869 75° East 265 305 11,000  Level Boston Center
10:31AM 42.9481 -74.5278 75° East 255 293 11,000  Level Boston Center
10:31AM 42.9531 -74.4939 79° East 251 289 11,000  Level Boston Center
10:32AM 42.9558 -74.4431 86° East 250 288 11,000  Level Boston Center
10:32AM 42.9544 -74.4117 93° East 244 281 11,000 -240 Level Boston Center
10:33AM 42.9514 -74.3436 93° East 238 274 10,800 -540 Descending Boston Center
10:33AM 42.9475 -74.3178 102° East 247 284 10,500 -1,020 Descending Boston Center
10:34AM 42.9444 -74.2553 94° East 243 280 9,800 -1,200 Descending Boston Center
10:34AM 42.9408 -74.2211 98° East 258 297 9,300 -1,440 Descending Boston Center
10:35AM 42.9356 -74.1531 96° East 243 280 8,400 -1,440 Descending Boston Center
10:35AM 42.9322 -74.1103 96° East 242 278 7,600 -1,320 Descending Boston Center
10:36AM 42.9306 -74.0706 93° East 243 280 7,100 -1,440 Descending Boston Center
10:36AM 42.9269 -74.0253 96° East 236 272 6,300 -1,920 Descending Boston Center
10:37AM 42.9236 -73.9769 95° East 233 268 5,200 -1,860 Descending Boston Center
10:38AM 42.9161 -73.9031 98° East 221 254 3,400 -1,620 Descending Boston Center
10:39AM 42.8881 -73.8314 118° Southeast 203 234 2,000 -720 Descending Boston Center
10:40AM 42.8678 -73.7744 116° Southeast 191 220 2,000 -300 Level Boston Center
10:40AM 42.8278 -73.8103 213° Southwest 155 178 1,600 -840 Descending Boston Center
10:41AM 42.7861 -73.8094 179° South 135 155 900 -720 Descending Boston Center